sensor_id;sensor_type;location;lat;lon;timestamp;pressure;altitude;pressure_sealevel;temperature;humidity
36502;BME280;25393;46.108;3.390;2023-03-14T00:00:53;96637.03;;;9.79;81.39
36502;BME280;25393;46.108;3.390;2023-03-14T00:03:22;96629.72;;;9.81;82.28
36502;BME280;25393;46.108;3.390;2023-03-14T00:05:49;96623.78;;;9.79;81.96
36502;BME280;25393;46.108;3.390;2023-03-14T00:08:17;96624.19;;;9.76;83.43
36502;BME280;25393;46.108;3.390;2023-03-14T00:10:44;96626.25;;;9.81;84.35
36502;BME280;25393;46.108;3.390;2023-03-14T00:13:10;96628.06;;;9.74;84.26
36502;BME280;25393;46.108;3.390;2023-03-14T00:15:37;96652.91;;;9.79;84.30
36502;BME280;25393;46.108;3.390;2023-03-14T00:18:03;96626.16;;;9.61;84.91
36502;BME280;25393;46.108;3.390;2023-03-14T00:20:30;96638.84;;;9.79;84.69
36502;BME280;25393;46.108;3.390;2023-03-14T00:22:56;96666.81;;;9.94;84.66
36502;BME280;25393;46.108;3.390;2023-03-14T00:25:23;96666.75;;;9.81;85.17
36502;BME280;25393;46.108;3.390;2023-03-14T00:27:51;96673.09;;;9.93;84.59
36502;BME280;25393;46.108;3.390;2023-03-14T00:30:19;96677.19;;;9.96;84.01
36502;BME280;25393;46.108;3.390;2023-03-14T00:32:45;96671.47;;;9.92;84.02
36502;BME280;25393;46.108;3.390;2023-03-14T00:35:12;96684.13;;;9.97;83.68
36502;BME280;25393;46.108;3.390;2023-03-14T00:37:39;96689.25;;;10.05;83.30
36502;BME280;25393;46.108;3.390;2023-03-14T00:40:06;96687.00;;;10.02;84.01
36502;BME280;25393;46.108;3.390;2023-03-14T00:42:33;96678.03;;;10.03;83.45
36502;BME280;25393;46.108;3.390;2023-03-14T00:45:00;96675.22;;;10.11;83.17
36502;BME280;25393;46.108;3.390;2023-03-14T00:47:26;96650.56;;;10.04;83.09
36502;BME280;25393;46.108;3.390;2023-03-14T00:49:56;96671.63;;;10.19;82.43
36502;BME280;25393;46.108;3.390;2023-03-14T00:52:26;96674.84;;;10.14;82.62
36502;BME280;25393;46.108;3.390;2023-03-14T00:54:57;96674.34;;;9.97;83.40
36502;BME280;25393;46.108;3.390;2023-03-14T00:57:26;96675.34;;;9.96;84.18
36502;BME280;25393;46.108;3.390;2023-03-14T00:59:56;96679.09;;;10.09;nan
36502;BME280;25393;46.108;3.390;2023-03-14T01:02:22;96679.25;;;10.00;84.10
36502;BME280;25393;46.108;3.390;2023-03-14T01:04:52;96674.38;;;10.04;83.88
36502;BME280;25393;46.108;3.390;2023-03-14T01:07:21;96662.56;;;10.07;83.66
36502;BME280;25393;46.108;3.390;2023-03-14T01:09:51;96662.38;;;10.01;84.12
36502;BME280;25393;46.108;3.390;2023-03-14T01:12:18;96653.19;;;10.04;83.54
36502;BME280;25393;46.108;3.390;2023-03-14T01:14:44;96658.31;;;10.06;83.42
36502;BME280;25393;46.108;3.390;2023-03-14T01:17:11;96671.75;;;10.11;83.53
36502;BME280;25393;46.108;3.390;2023-03-14T01:19:37;96668.69;;;10.14;80.60
36502;BME280;25393;46.108;3.390;2023-03-14T01:22:04;96670.31;;;10.08;80.48
36502;BME280;25393;46.108;3.390;2023-03-14T01:24:30;96671.75;;;10.11;78.84
36502;BME280;25393;46.108;3.390;2023-03-14T01:26:57;96665.00;;;10.01;79.40
36502;BME280;25393;46.108;3.390;2023-03-14T01:29:23;96674.19;;;10.06;78.54
36502;BME280;25393;46.108;3.390;2023-03-14T01:31:52;96666.03;;;10.07;77.47
36502;BME280;25393;46.108;3.390;2023-03-14T01:34:19;96653.59;;;9.94;77.33
36502;BME280;25393;46.108;3.390;2023-03-14T01:36:45;96659.13;;;10.06;77.72
36502;BME280;25393;46.108;3.390;2023-03-14T01:39:12;96660.53;;;10.02;78.15
36502;BME280;25393;46.108;3.390;2023-03-14T01:41:40;96626.91;;;9.96;77.32
36502;BME280;25393;46.108;3.390;2023-03-14T01:44:11;96632.84;;;10.04;76.79
36502;BME280;25393;46.108;3.390;2023-03-14T01:46:39;96633.66;;;10.05;76.40
36502;BME280;25393;46.108;3.390;2023-03-14T01:56:38;96613.59;;;10.30;75.38
36502;BME280;25393;46.108;3.390;2023-03-14T01:59:08;96612.94;;;10.15;75.72
36502;BME280;25393;46.108;3.390;2023-03-14T02:01:38;96611.78;;;10.37;75.51
36502;BME280;25393;46.108;3.390;2023-03-14T02:04:08;96612.78;;;10.30;76.10
36502;BME280;25393;46.108;3.390;2023-03-14T02:06:44;96606.06;;;10.27;76.01
36502;BME280;25393;46.108;3.390;2023-03-14T02:09:13;96606.06;;;10.27;74.80
36502;BME280;25393;46.108;3.390;2023-03-14T02:11:39;96603.00;;;10.24;75.00
36502;BME280;25393;46.108;3.390;2023-03-14T02:14:07;96586.41;;;10.02;75.62
36502;BME280;25393;46.108;3.390;2023-03-14T02:16:36;96597.06;;;10.15;74.91
36502;BME280;25393;46.108;3.390;2023-03-14T02:19:02;96591.91;;;10.14;74.83
36502;BME280;25393;46.108;3.390;2023-03-14T02:21:45;96572.19;;;10.10;74.44
36502;BME280;25393;46.108;3.390;2023-03-14T02:24:23;96580.38;;;10.21;74.45
36502;BME280;25393;46.108;3.390;2023-03-14T02:27:17;96580.38;;;10.28;73.16
36502;BME280;25393;46.108;3.390;2023-03-14T02:29:51;96579.94;;;10.18;74.42
36502;BME280;25393;46.108;3.390;2023-03-14T02:32:20;96568.16;;;10.27;73.94
36502;BME280;25393;46.108;3.390;2023-03-14T02:34:52;96563.69;;;10.27;73.53
36502;BME280;25393;46.108;3.390;2023-03-14T02:37:23;96560.16;;;10.14;74.27
36502;BME280;25393;46.108;3.390;2023-03-14T02:39:50;96552.06;;;10.15;74.89
36502;BME280;25393;46.108;3.390;2023-03-14T02:42:18;96557.94;;;10.17;74.99
36502;BME280;25393;46.108;3.390;2023-03-14T02:44:53;96548.41;;;10.23;75.01
36502;BME280;25393;46.108;3.390;2023-03-14T02:47:27;96530.88;;;10.22;75.49
36502;BME280;25393;46.108;3.390;2023-03-14T02:50:00;96528.84;;;10.24;75.66
36502;BME280;25393;46.108;3.390;2023-03-14T02:52:27;96525.38;;;10.30;75.62
36502;BME280;25393;46.108;3.390;2023-03-14T02:54:53;96530.28;;;10.20;76.50
36502;BME280;25393;46.108;3.390;2023-03-14T02:57:20;96507.19;;;10.14;77.58
36502;BME280;25393;46.108;3.390;2023-03-14T02:59:46;96500.91;;;10.08;77.26
36502;BME280;25393;46.108;3.390;2023-03-14T03:02:13;96511.31;;;10.23;75.59
36502;BME280;25393;46.108;3.390;2023-03-14T03:04:40;96505.78;;;10.04;75.25
36502;BME280;25393;46.108;3.390;2023-03-14T03:07:06;96497.66;;;10.13;75.75
36502;BME280;25393;46.108;3.390;2023-03-14T03:09:33;96519.88;;;10.25;76.46
36502;BME280;25393;46.108;3.390;2023-03-14T03:11:59;96508.69;;;10.29;77.19
36502;BME280;25393;46.108;3.390;2023-03-14T03:14:28;96509.69;;;10.15;77.93
36502;BME280;25393;46.108;3.390;2023-03-14T03:16:54;96517.63;;;10.15;79.21
36502;BME280;25393;46.108;3.390;2023-03-14T03:19:21;96497.69;;;10.19;78.65
36502;BME280;25393;46.108;3.390;2023-03-14T03:21:47;96498.09;;;10.23;78.90
36502;BME280;25393;46.108;3.390;2023-03-14T03:24:14;96504.41;;;10.28;78.25
36502;BME280;25393;46.108;3.390;2023-03-14T03:26:41;96500.75;;;10.23;78.41
36502;BME280;25393;46.108;3.390;2023-03-14T03:29:07;96492.97;;;10.28;76.52
36502;BME280;25393;46.108;3.390;2023-03-14T03:31:37;96505.81;;;10.24;76.83
36502;BME280;25393;46.108;3.390;2023-03-14T03:34:04;96496.03;;;10.18;77.63
36502;BME280;25393;46.108;3.390;2023-03-14T03:36:30;96496.44;;;10.22;77.44
36502;BME280;25393;46.108;3.390;2023-03-14T03:38:59;96480.97;;;10.19;79.22
36502;BME280;25393;46.108;3.390;2023-03-14T03:41:26;96487.09;;;10.19;79.32
36502;BME280;25393;46.108;3.390;2023-03-14T03:43:52;96483.22;;;10.15;79.26
36502;BME280;25393;46.108;3.390;2023-03-14T03:46:20;96460.59;;;10.06;79.57
36502;BME280;25393;46.108;3.390;2023-03-14T03:48:47;96484.19;;;9.94;81.55
36502;BME280;25393;46.108;3.390;2023-03-14T03:51:15;96481.72;;;9.86;81.99
36502;BME280;25393;46.108;3.390;2023-03-14T03:53:42;96489.25;;;9.96;81.54
36502;BME280;25393;46.108;3.390;2023-03-14T03:56:09;96477.84;;;9.89;82.58
36502;BME280;25393;46.108;3.390;2023-03-14T03:58:36;96475.00;;;9.84;83.48
36502;BME280;25393;46.108;3.390;2023-03-14T04:01:06;96475.03;;;9.97;82.53
36502;BME280;25393;46.108;3.390;2023-03-14T04:03:36;96487.66;;;10.01;83.31
36502;BME280;25393;46.108;3.390;2023-03-14T04:06:08;96473.38;;;9.96;84.21
36502;BME280;25393;46.108;3.390;2023-03-14T04:08:35;96481.53;;;10.01;83.88
36502;BME280;25393;46.108;3.390;2023-03-14T04:11:03;96485.19;;;9.87;85.12
36502;BME280;25393;46.108;3.390;2023-03-14T04:13:32;96492.53;;;9.91;85.83
36502;BME280;25393;46.108;3.390;2023-03-14T04:15:59;96490.53;;;10.13;85.28
36502;BME280;25393;46.108;3.390;2023-03-14T04:18:26;96497.25;;;10.02;86.39
36502;BME280;25393;46.108;3.390;2023-03-14T04:20:56;96495.19;;;9.98;87.45
36502;BME280;25393;46.108;3.390;2023-03-14T04:23:24;96495.41;;;10.10;86.99
36502;BME280;25393;46.108;3.390;2023-03-14T04:25:51;96501.09;;;10.07;86.69
36502;BME280;25393;46.108;3.390;2023-03-14T04:28:18;96501.31;;;10.05;88.89
36502;BME280;25393;46.108;3.390;2023-03-14T04:30:45;96491.53;;;10.06;89.13
36502;BME280;25393;46.108;3.390;2023-03-14T04:33:11;96500.50;;;10.04;90.11
36502;BME280;25393;46.108;3.390;2023-03-14T04:35:41;96493.13;;;9.93;90.89
36502;BME280;25393;46.108;3.390;2023-03-14T04:38:08;96502.31;;;9.97;91.02
36502;BME280;25393;46.108;3.390;2023-03-14T04:40:39;96504.53;;;9.94;91.09
36502;BME280;25393;46.108;3.390;2023-03-14T04:43:10;96522.06;;;9.88;92.38
36502;BME280;25393;46.108;3.390;2023-03-14T04:45:43;96525.28;;;9.84;93.88
36502;BME280;25393;46.108;3.390;2023-03-14T04:48:09;96519.41;;;10.01;93.21
36502;BME280;25393;46.108;3.390;2023-03-14T04:50:40;96516.13;;;9.99;93.07
36502;BME280;25393;46.108;3.390;2023-03-14T04:53:07;96523.28;;;9.99;94.15
36502;BME280;25393;46.108;3.390;2023-03-14T04:55:33;96527.78;;;9.98;94.28
36502;BME280;25393;46.108;3.390;2023-03-14T04:58:03;96536.53;;;10.06;94.67
36502;BME280;25393;46.108;3.390;2023-03-14T05:00:30;96513.09;;;9.96;95.56
36502;BME280;25393;46.108;3.390;2023-03-14T05:02:56;96530.41;;;10.05;96.92
36502;BME280;25393;46.108;3.390;2023-03-14T05:05:23;96536.72;;;10.04;98.57
36502;BME280;25393;46.108;3.390;2023-03-14T05:07:49;96536.53;;;9.99;100.00
36502;BME280;25393;46.108;3.390;2023-03-14T05:10:16;96539.78;;;9.94;100.00
36502;BME280;25393;46.108;3.390;2023-03-14T05:12:42;96545.66;;;9.90;100.00
36502;BME280;25393;46.108;3.390;2023-03-14T05:15:09;96535.47;;;9.87;100.00
36502;BME280;25393;46.108;3.390;2023-03-14T05:17:35;96532.81;;;9.87;100.00
36502;BME280;25393;46.108;3.390;2023-03-14T05:20:04;96525.06;;;9.85;100.00
36502;BME280;25393;46.108;3.390;2023-03-14T05:22:35;96529.38;;;9.93;100.00
36502;BME280;25393;46.108;3.390;2023-03-14T05:25:01;96537.53;;;9.91;100.00
36502;BME280;25393;46.108;3.390;2023-03-14T05:27:28;96533.06;;;9.98;100.00
36502;BME280;25393;46.108;3.390;2023-03-14T05:29:54;96516.94;;;9.87;100.00
36502;BME280;25393;46.108;3.390;2023-03-14T05:32:21;96538.72;;;9.89;100.00
36502;BME280;25393;46.108;3.390;2023-03-14T05:34:47;96529.75;;;9.83;100.00
36502;BME280;25393;46.108;3.390;2023-03-14T05:37:14;96549.31;;;9.89;100.00
36502;BME280;25393;46.108;3.390;2023-03-14T05:39:41;96549.94;;;9.84;100.00
36502;BME280;25393;46.108;3.390;2023-03-14T05:42:07;96546.03;;;9.80;100.00
36502;BME280;25393;46.108;3.390;2023-03-14T05:44:36;96569.88;;;9.87;100.00
36502;BME280;25393;46.108;3.390;2023-03-14T05:47:02;96564.81;;;9.92;100.00
36502;BME280;25393;46.108;3.390;2023-03-14T05:49:29;96584.34;;;9.91;100.00
36502;BME280;25393;46.108;3.390;2023-03-14T05:51:55;96592.06;;;9.86;100.00
36502;BME280;25393;46.108;3.390;2023-03-14T05:54:22;96601.66;;;9.93;100.00
36502;BME280;25393;46.108;3.390;2023-03-14T05:56:48;96588.44;;;10.00;100.00
36502;BME280;25393;46.108;3.390;2023-03-14T05:59:15;96613.31;;;10.12;100.00
36502;BME280;25393;46.108;3.390;2023-03-14T06:01:42;96613.88;;;9.94;97.17
36502;BME280;25393;46.108;3.390;2023-03-14T06:04:12;96623.25;;;9.97;95.59
36502;BME280;25393;46.108;3.390;2023-03-14T06:06:43;96639.63;;;9.73;98.21
36502;BME280;25393;46.108;3.390;2023-03-14T06:09:13;96627.78;;;9.62;99.08
36502;BME280;25393;46.108;3.390;2023-03-14T06:11:42;96632.50;;;9.67;100.00
36502;BME280;25393;46.108;3.390;2023-03-14T06:14:12;96677.06;;;9.63;100.00
36502;BME280;25393;46.108;3.390;2023-03-14T06:16:42;96666.44;;;9.57;100.00
36502;BME280;25393;46.108;3.390;2023-03-14T06:19:12;96676.16;;;9.49;100.00
36502;BME280;25393;46.108;3.390;2023-03-14T06:21:42;96686.09;;;9.47;100.00
36502;BME280;25393;46.108;3.390;2023-03-14T06:24:09;96676.22;;;9.28;100.00
36502;BME280;25393;46.108;3.390;2023-03-14T06:26:36;96702.47;;;9.30;100.00
36502;BME280;25393;46.108;3.390;2023-03-14T06:29:03;96723.00;;;9.28;100.00
36502;BME280;25393;46.108;3.390;2023-03-14T06:31:30;96730.75;;;9.08;100.00
36502;BME280;25393;46.108;3.390;2023-03-14T06:33:57;96745.72;;;9.01;100.00
36502;BME280;25393;46.108;3.390;2023-03-14T06:36:24;96744.84;;;8.94;100.00
36502;BME280;25393;46.108;3.390;2023-03-14T06:38:50;96702.28;;;8.82;100.00
36502;BME280;25393;46.108;3.390;2023-03-14T06:41:17;96756.63;;;8.70;100.00
36502;BME280;25393;46.108;3.390;2023-03-14T06:43:44;96773.78;;;8.60;100.00
36502;BME280;25393;46.108;3.390;2023-03-14T06:46:10;96783.06;;;8.56;100.00
36502;BME280;25393;46.108;3.390;2023-03-14T06:48:37;96813.03;;;8.63;100.00
36502;BME280;25393;46.108;3.390;2023-03-14T06:51:05;96811.00;;;8.43;100.00
36502;BME280;25393;46.108;3.390;2023-03-14T06:53:33;96828.91;;;8.48;100.00
36502;BME280;25393;46.108;3.390;2023-03-14T06:56:08;96840.66;;;8.45;100.00
36502;BME280;25393;46.108;3.390;2023-03-14T06:58:43;96850.97;;;8.40;100.00
36502;BME280;25393;46.108;3.390;2023-03-14T07:01:21;96868.34;;;8.49;100.00
36502;BME280;25393;46.108;3.390;2023-03-14T07:03:48;96874.25;;;8.51;100.00
36502;BME280;25393;46.108;3.390;2023-03-14T07:06:14;96885.81;;;8.50;100.00
36502;BME280;25393;46.108;3.390;2023-03-14T07:08:41;96895.28;;;8.45;100.00
36502;BME280;25393;46.108;3.390;2023-03-14T07:11:12;96908.78;;;8.50;100.00
36502;BME280;25393;46.108;3.390;2023-03-14T07:13:42;96928.78;;;8.44;100.00
36502;BME280;25393;46.108;3.390;2023-03-14T07:16:11;96938.09;;;8.40;100.00
36502;BME280;25393;46.108;3.390;2023-03-14T07:18:38;96951.38;;;8.32;100.00
36502;BME280;25393;46.108;3.390;2023-03-14T07:21:08;96958.88;;;8.21;100.00
36502;BME280;25393;46.108;3.390;2023-03-14T07:23:36;96979.31;;;8.27;100.00
36502;BME280;25393;46.108;3.390;2023-03-14T07:26:03;97001.56;;;8.24;100.00
36502;BME280;25393;46.108;3.390;2023-03-14T07:28:30;97010.28;;;8.33;100.00
36502;BME280;25393;46.108;3.390;2023-03-14T07:30:56;97014.16;;;8.22;100.00
36502;BME280;25393;46.108;3.390;2023-03-14T07:33:23;97035.53;;;8.13;100.00
36502;BME280;25393;46.108;3.390;2023-03-14T07:35:50;97040.97;;;8.11;100.00
36502;BME280;25393;46.108;3.390;2023-03-14T07:38:17;97052.50;;;8.10;100.00
36502;BME280;25393;46.108;3.390;2023-03-14T07:40:45;97060.31;;;8.03;100.00
36502;BME280;25393;46.108;3.390;2023-03-14T07:43:12;97056.84;;;8.03;100.00
36502;BME280;25393;46.108;3.390;2023-03-14T07:45:45;97081.75;;;8.09;100.00
36502;BME280;25393;46.108;3.390;2023-03-14T07:48:16;97087.69;;;8.02;100.00
36502;BME280;25393;46.108;3.390;2023-03-14T07:50:43;97089.00;;;8.07;100.00
36502;BME280;25393;46.108;3.390;2023-03-14T07:53:13;97115.34;;;8.15;98.79
36502;BME280;25393;46.108;3.390;2023-03-14T07:55:42;97123.97;;;8.31;98.92
36502;BME280;25393;46.108;3.390;2023-03-14T07:58:12;97123.38;;;8.21;97.97
36502;BME280;25393;46.108;3.390;2023-03-14T08:00:41;97122.38;;;8.22;98.09
36502;BME280;25393;46.108;3.390;2023-03-14T08:03:12;97115.91;;;8.25;93.03
36502;BME280;25393;46.108;3.390;2023-03-14T08:05:42;97135.00;;;8.35;94.76
36502;BME280;25393;46.108;3.390;2023-03-14T08:08:12;97122.81;;;8.34;90.72
36502;BME280;25393;46.108;3.390;2023-03-14T08:10:42;97150.59;;;8.44;92.38
36502;BME280;25393;46.108;3.390;2023-03-14T08:13:13;97135.69;;;8.51;88.47
36502;BME280;25393;46.108;3.390;2023-03-14T08:15:40;97132.91;;;8.53;87.34
36502;BME280;25393;46.108;3.390;2023-03-14T08:18:07;97137.72;;;8.49;86.47
36502;BME280;25393;46.108;3.390;2023-03-14T08:20:35;97112.13;;;8.50;85.42
36502;BME280;25393;46.108;3.390;2023-03-14T08:23:02;97137.41;;;8.44;83.79
36502;BME280;25393;46.108;3.390;2023-03-14T08:25:28;97143.25;;;8.40;84.69
36502;BME280;25393;46.108;3.390;2023-03-14T08:27:56;97108.13;;;8.31;83.35
36502;BME280;25393;46.108;3.390;2023-03-14T08:30:22;97134.28;;;8.41;81.77
36502;BME280;25393;46.108;3.390;2023-03-14T08:32:49;97134.75;;;8.44;82.73
36502;BME280;25393;46.108;3.390;2023-03-14T08:35:16;97145.56;;;8.58;82.21
36502;BME280;25393;46.108;3.390;2023-03-14T08:37:43;97147.44;;;8.72;82.82
36502;BME280;25393;46.108;3.390;2023-03-14T08:40:12;97162.47;;;8.71;82.76
36502;BME280;25393;46.108;3.390;2023-03-14T08:42:43;97165.06;;;8.79;82.34
36502;BME280;25393;46.108;3.390;2023-03-14T08:45:14;97179.34;;;8.85;81.46
36502;BME280;25393;46.108;3.390;2023-03-14T08:47:41;97192.28;;;8.80;85.31
36502;BME280;25393;46.108;3.390;2023-03-14T08:50:08;97205.25;;;8.67;89.62
36502;BME280;25393;46.108;3.390;2023-03-14T08:52:41;97206.25;;;8.88;89.24
36502;BME280;25393;46.108;3.390;2023-03-14T08:55:09;97212.31;;;8.74;89.55
36502;BME280;25393;46.108;3.390;2023-03-14T08:57:37;97217.59;;;9.12;88.90
36502;BME280;25393;46.108;3.390;2023-03-14T09:00:07;97210.13;;;9.15;88.64
36502;BME280;25393;46.108;3.390;2023-03-14T09:02:42;97215.91;;;9.48;85.77
36502;BME280;25393;46.108;3.390;2023-03-14T09:05:11;97206.56;;;10.11;82.20
36502;BME280;25393;46.108;3.390;2023-03-14T09:07:41;97217.31;;;10.38;80.22
36502;BME280;25393;46.108;3.390;2023-03-14T09:10:08;97204.66;;;10.34;81.37
36502;BME280;25393;46.108;3.390;2023-03-14T09:12:35;97208.22;;;10.26;77.21
36502;BME280;25393;46.108;3.390;2023-03-14T09:15:03;97226.66;;;10.34;76.02
36502;BME280;25393;46.108;3.390;2023-03-14T09:17:30;97238.81;;;9.99;77.32
36502;BME280;25393;46.108;3.390;2023-03-14T09:19:57;97260.53;;;9.66;83.49
36502;BME280;25393;46.108;3.390;2023-03-14T09:22:25;97272.59;;;9.16;86.16
36502;BME280;25393;46.108;3.390;2023-03-14T09:24:52;97286.34;;;9.12;85.58
36502;BME280;25393;46.108;3.390;2023-03-14T09:27:19;97278.06;;;8.69;95.28
36502;BME280;25393;46.108;3.390;2023-03-14T09:29:45;97298.63;;;8.82;91.35
36502;BME280;25393;46.108;3.390;2023-03-14T09:32:11;97285.44;;;9.19;92.35
36502;BME280;25393;46.108;3.390;2023-03-14T09:34:41;97260.81;;;9.19;87.26
36502;BME280;25393;46.108;3.390;2023-03-14T09:37:07;97287.16;;;10.16;85.41
36502;BME280;25393;46.108;3.390;2023-03-14T09:39:36;97288.94;;;10.66;78.40
36502;BME280;25393;46.108;3.390;2023-03-14T09:42:06;97264.31;;;11.08;73.03
36502;BME280;25393;46.108;3.390;2023-03-14T09:44:42;97288.34;;;11.28;71.14
36502;BME280;25393;46.108;3.390;2023-03-14T09:47:13;97288.47;;;10.98;69.31
36502;BME280;25393;46.108;3.390;2023-03-14T09:49:40;97293.28;;;10.88;73.25
36502;BME280;25393;46.108;3.390;2023-03-14T09:52:31;97281.56;;;11.46;70.79
36502;BME280;25393;46.108;3.390;2023-03-14T09:55:02;97299.91;;;11.69;69.89
36502;BME280;25393;46.108;3.390;2023-03-14T09:57:29;97287.44;;;12.32;70.22
36502;BME280;25393;46.108;3.390;2023-03-14T10:00:03;97297.63;;;12.76;70.19
36502;BME280;25393;46.108;3.390;2023-03-14T10:02:43;97286.41;;;12.87;68.06
36502;BME280;25393;46.108;3.390;2023-03-14T10:05:17;97288.44;;;12.91;68.79
36502;BME280;25393;46.108;3.390;2023-03-14T10:07:44;97301.06;;;12.16;67.84
36502;BME280;25393;46.108;3.390;2023-03-14T10:10:16;97292.47;;;12.68;65.23
36502;BME280;25393;46.108;3.390;2023-03-14T10:12:46;97301.84;;;13.11;62.76
36502;BME280;25393;46.108;3.390;2023-03-14T10:15:26;97284.72;;;12.66;61.29
36502;BME280;25393;46.108;3.390;2023-03-14T10:17:53;97302.03;;;12.08;65.81
36502;BME280;25393;46.108;3.390;2023-03-14T10:20:32;97300.88;;;11.62;68.04
36502;BME280;25393;46.108;3.390;2023-03-14T10:25:34;97304.91;;;11.58;68.30
36502;BME280;25393;46.108;3.390;2023-03-14T10:28:04;97305.28;;;11.27;68.86
36502;BME280;25393;46.108;3.390;2023-03-14T10:30:39;97328.28;;;10.84;72.51
36502;BME280;25393;46.108;3.390;2023-03-14T10:33:33;97322.06;;;10.56;72.87
36502;BME280;25393;46.108;3.390;2023-03-14T10:36:21;97323.00;;;11.05;68.65
36502;BME280;25393;46.108;3.390;2023-03-14T10:38:49;97324.88;;;11.26;66.96
36502;BME280;25393;46.108;3.390;2023-03-14T10:41:26;97321.63;;;12.41;65.22
36502;BME280;25393;46.108;3.390;2023-03-14T10:43:56;97305.16;;;13.33;60.84
36502;BME280;25393;46.108;3.390;2023-03-14T10:46:25;97311.28;;;13.86;59.48
36502;BME280;25393;46.108;3.390;2023-03-14T10:48:53;97312.31;;;13.32;57.86
36502;BME280;25393;46.108;3.390;2023-03-14T10:56:24;97347.63;;;10.99;60.61
36502;BME280;25393;46.108;3.390;2023-03-14T10:58:53;97342.97;;;10.65;59.27
36502;BME280;25393;46.108;3.390;2023-03-14T11:01:32;97352.94;;;10.63;61.22
36502;BME280;25393;46.108;3.390;2023-03-14T11:07:08;97369.88;;;11.62;55.26
36502;BME280;25393;46.108;3.390;2023-03-14T11:13:00;97402.38;;;10.71;55.13
36502;BME280;25393;46.108;3.390;2023-03-14T11:15:47;97376.97;;;10.18;58.77
36502;BME280;25393;46.108;3.390;2023-03-14T11:18:41;97449.94;;;9.83;70.86
36502;BME280;25393;46.108;3.390;2023-03-14T11:21:28;97446.38;;;9.22;76.96
36502;BME280;25393;46.108;3.390;2023-03-14T11:24:12;97425.22;;;9.22;78.17
36502;BME280;25393;46.108;3.390;2023-03-14T11:32:02;97414.38;;;12.71;59.52
36502;BME280;25393;46.108;3.390;2023-03-14T11:34:35;97406.91;;;13.55;59.97
36502;BME280;25393;46.108;3.390;2023-03-14T11:37:36;97410.44;;;14.14;55.01
36502;BME280;25393;46.108;3.390;2023-03-14T11:40:18;97395.28;;;13.95;50.76
36502;BME280;25393;46.108;3.390;2023-03-14T11:42:59;97385.41;;;13.36;51.21
36502;BME280;25393;46.108;3.390;2023-03-14T11:45:34;97408.06;;;12.37;48.73
36502;BME280;25393;46.108;3.390;2023-03-14T11:48:41;97411.88;;;11.73;51.24
36502;BME280;25393;46.108;3.390;2023-03-14T11:51:34;97439.28;;;12.01;51.75
36502;BME280;25393;46.108;3.390;2023-03-14T11:54:21;97425.59;;;12.04;52.17
36502;BME280;25393;46.108;3.390;2023-03-14T11:57:01;97421.97;;;12.39;49.26
36502;BME280;25393;46.108;3.390;2023-03-14T12:02:03;97435.84;;;12.63;49.74
36502;BME280;25393;46.108;3.390;2023-03-14T12:07:49;97443.63;;;13.05;47.61
36502;BME280;25393;46.108;3.390;2023-03-14T12:10:22;97424.56;;;12.61;49.75
36502;BME280;25393;46.108;3.390;2023-03-14T12:12:48;97429.34;;;11.67;48.12
36502;BME280;25393;46.108;3.390;2023-03-14T12:15:19;97458.09;;;11.42;51.30
36502;BME280;25393;46.108;3.390;2023-03-14T12:17:53;97452.59;;;11.44;50.44
36502;BME280;25393;46.108;3.390;2023-03-14T12:20:25;97451.47;;;11.17;49.55
36502;BME280;25393;46.108;3.390;2023-03-14T12:23:11;97441.91;;;11.01;51.10
36502;BME280;25393;46.108;3.390;2023-03-14T12:25:42;97454.06;;;10.96;51.68
36502;BME280;25393;46.108;3.390;2023-03-14T12:28:19;97429.38;;;11.10;50.04
36502;BME280;25393;46.108;3.390;2023-03-14T12:30:46;97450.75;;;11.09;51.91
36502;BME280;25393;46.108;3.390;2023-03-14T12:35:50;97453.66;;;11.28;49.29
36502;BME280;25393;46.108;3.390;2023-03-14T12:43:53;97457.28;;;11.42;48.94
36502;BME280;25393;46.108;3.390;2023-03-14T12:46:29;97456.91;;;11.66;49.71
36502;BME280;25393;46.108;3.390;2023-03-14T12:51:39;97456.78;;;12.79;46.90
36502;BME280;25393;46.108;3.390;2023-03-14T12:56:58;97445.28;;;14.59;43.50
36502;BME280;25393;46.108;3.390;2023-03-14T12:59:47;97437.06;;;13.81;43.73
36502;BME280;25393;46.108;3.390;2023-03-14T13:04:53;97455.72;;;13.75;48.56
36502;BME280;25393;46.108;3.390;2023-03-14T13:07:31;97453.47;;;13.72;47.26
36502;BME280;25393;46.108;3.390;2023-03-14T13:12:57;97457.50;;;12.32;46.18
36502;BME280;25393;46.108;3.390;2023-03-14T13:15:48;97473.44;;;11.83;47.62
36502;BME280;25393;46.108;3.390;2023-03-14T13:18:40;97470.59;;;11.84;46.23
36502;BME280;25393;46.108;3.390;2023-03-14T13:21:16;97456.31;;;12.34;46.12
36502;BME280;25393;46.108;3.390;2023-03-14T13:23:58;97446.50;;;13.97;45.17
36502;BME280;25393;46.108;3.390;2023-03-14T13:29:19;97450.22;;;13.89;42.83
36502;BME280;25393;46.108;3.390;2023-03-14T13:31:48;97432.06;;;13.32;42.88
36502;BME280;25393;46.108;3.390;2023-03-14T13:34:16;97446.22;;;12.98;42.85
36502;BME280;25393;46.108;3.390;2023-03-14T13:36:43;97453.25;;;13.73;43.51
36502;BME280;25393;46.108;3.390;2023-03-14T13:39:17;97456.78;;;14.20;43.48
36502;BME280;25393;46.108;3.390;2023-03-14T13:41:46;97453.66;;;13.83;42.10
36502;BME280;25393;46.108;3.390;2023-03-14T13:44:25;97454.09;;;13.13;43.54
36502;BME280;25393;46.108;3.390;2023-03-14T13:46:57;97457.13;;;12.69;46.17
36502;BME280;25393;46.108;3.390;2023-03-14T13:49:25;97455.97;;;12.85;43.75
36502;BME280;25393;46.108;3.390;2023-03-14T13:51:53;97440.25;;;13.31;43.85
36502;BME280;25393;46.108;3.390;2023-03-14T13:54:21;97471.34;;;13.24;43.60
36502;BME280;25393;46.108;3.390;2023-03-14T13:56:59;97446.44;;;12.97;44.31
36502;BME280;25393;46.108;3.390;2023-03-14T13:59:28;97456.69;;;12.31;43.83
36502;BME280;25393;46.108;3.390;2023-03-14T14:01:57;97447.88;;;12.03;44.43
36502;BME280;25393;46.108;3.390;2023-03-14T14:04:25;97471.38;;;11.78;46.33
36502;BME280;25393;46.108;3.390;2023-03-14T14:06:58;97469.63;;;12.13;46.95
36502;BME280;25393;46.108;3.390;2023-03-14T14:09:29;97457.69;;;13.40;47.83
36502;BME280;25393;46.108;3.390;2023-03-14T14:12:00;97465.72;;;13.60;43.93